Time;durP1;ratioP1;P1;durP2;ratioP2;P2;SDS_P1;SDS_P2;PMS_P1;PMS_P2;Temp;Humidity;BMP_temperature;BMP_pressure;BME280_temperature;BME280_humidity;BME280_pressure;Samples;Min_cycle;Max_cycle;Signal;HPM_P1;HPM_P2
2023/03/06 00:00:39;;;;;;;;;;;17.50;64.60;;;;;;10333024;28;92969;-68
2023/03/06 00:05:41;;;;;;;;;;;17.40;64.40;;;;;;10333711;28;94511;-68
2023/03/06 00:10:43;;;;;;;;;;;17.40;64.20;;;;;;10315366;28;93047;-68
2023/03/06 00:15:45;;;;;;;;;;;17.40;64.10;;;;;;10333067;28;94156;-68
2023/03/06 00:20:47;;;;;;;;;;;17.30;64.00;;;;;;10333370;28;94384;-68
2023/03/06 00:25:49;;;;;;;;;;;17.30;63.90;;;;;;10333914;28;92501;-68
2023/03/06 00:30:51;;;;;;;;;;;17.30;63.80;;;;;;10332481;28;94103;-68
2023/03/06 00:35:52;;;;;;;;;;;17.30;63.80;;;;;;10332544;28;93274;-68
2023/03/06 00:40:54;;;;;;;;;;;17.20;63.50;;;;;;10330989;28;96904;-68
2023/03/06 00:45:56;;;;;;;;;;;17.20;63.40;;;;;;10332136;28;94276;-69
2023/03/06 00:50:58;;;;;;;;;;;17.20;63.40;;;;;;10331570;28;94452;-67
2023/03/06 00:56:00;;;;;;;;;;;17.20;63.10;;;;;;10331588;28;93780;-67
2023/03/06 01:01:02;;;;;;;;;;;17.10;63.10;;;;;;10331864;28;93280;-67
2023/03/06 01:06:04;;;;;;;;;;;17.10;63.10;;;;;;10331810;28;94816;-68
2023/03/06 01:11:05;;;;;;;;;;;17.10;63.10;;;;;;10332084;28;94436;-68
2023/03/06 01:16:09;;;;;;;;;;;17.10;63.00;;;;;;10333343;28;93273;-68
2023/03/06 01:21:11;;;;;;;;;;;17.00;62.90;;;;;;10331564;28;93516;-68
2023/03/06 01:26:12;;;;;;;;;;;17.00;62.90;;;;;;10331948;28;94456;-68
2023/03/06 01:31:14;;;;;;;;;;;17.00;62.80;;;;;;10328312;28;94960;-68
2023/03/06 01:36:16;;;;;;;;;;;17.00;62.80;;;;;;10331647;28;94616;-68
2023/03/06 01:41:20;;;;;;;;;;;16.90;62.70;;;;;;10330856;28;94475;-68
2023/03/06 01:46:24;;;;;;;;;;;17.00;62.70;;;;;;10330966;28;93613;-68
2023/03/06 01:51:29;;;;;;;;;;;16.90;62.60;;;;;;10330449;28;94008;-68
2023/03/06 01:56:30;;;;;;;;;;;16.90;62.40;;;;;;10329553;28;94324;-68
2023/03/06 02:01:32;;;;;;;;;;;16.90;62.20;;;;;;10330839;28;92491;-68
2023/03/06 02:06:35;;;;;;;;;;;16.90;62.30;;;;;;10330546;28;93037;-68
2023/03/06 02:11:37;;;;;;;;;;;16.90;62.30;;;;;;10329686;28;94538;-69
2023/03/06 02:16:40;;;;;;;;;;;16.90;62.10;;;;;;10312601;28;93492;-68
2023/03/06 02:21:42;;;;;;;;;;;16.90;62.10;;;;;;10327090;28;96402;-68
2023/03/06 02:26:45;;;;;;;;;;;16.80;62.00;;;;;;10331071;28;93693;-69
2023/03/06 02:31:47;;;;;;;;;;;16.80;62.10;;;;;;10330658;28;93163;-68
2023/03/06 02:36:54;;;;;;;;;;;16.80;62.00;;;;;;10313781;28;93290;-68
2023/03/06 02:41:56;;;;;;;;;;;16.80;62.00;;;;;;10330037;28;93273;-69
2023/03/06 02:46:58;;;;;;;;;;;16.80;62.00;;;;;;10329203;28;93474;-69
2023/03/06 02:51:59;;;;;;;;;;;16.80;61.90;;;;;;10328979;28;93035;-69
2023/03/06 02:57:01;;;;;;;;;;;16.80;61.90;;;;;;10312825;28;93855;-69
2023/03/06 03:02:03;;;;;;;;;;;16.70;61.80;;;;;;10329064;28;94203;-68
2023/03/06 03:07:05;;;;;;;;;;;16.70;61.80;;;;;;10280278;28;93483;-69
2023/03/06 03:12:06;;;;;;;;;;;16.70;61.90;;;;;;10292315;28;95838;-69
2023/03/06 03:17:08;;;;;;;;;;;16.70;61.90;;;;;;10293645;28;93456;-69
2023/03/06 03:22:10;;;;;;;;;;;16.70;61.80;;;;;;10294658;28;93221;-68
2023/03/06 03:27:12;;;;;;;;;;;16.70;61.70;;;;;;10294374;28;94269;-68
2023/03/06 03:32:13;;;;;;;;;;;16.70;61.70;;;;;;10293562;28;94561;-69
2023/03/06 03:37:15;;;;;;;;;;;16.60;61.80;;;;;;10293672;28;94257;-69
2023/03/06 03:42:17;;;;;;;;;;;16.60;61.80;;;;;;10293680;28;94353;-69
2023/03/06 03:47:19;;;;;;;;;;;16.60;61.60;;;;;;10276442;28;92918;-69
2023/03/06 03:52:20;;;;;;;;;;;16.60;61.60;;;;;;10292893;28;93455;-68
2023/03/06 03:57:22;;;;;;;;;;;16.60;61.60;;;;;;10293286;28;94115;-68
2023/03/06 04:02:24;;;;;;;;;;;16.60;61.50;;;;;;10290438;28;95938;-68
2023/03/06 04:07:26;;;;;;;;;;;16.60;61.60;;;;;;10292041;28;93444;-68
2023/03/06 04:12:27;;;;;;;;;;;16.50;61.50;;;;;;10292100;28;93479;-68
2023/03/06 04:17:32;;;;;;;;;;;16.50;61.60;;;;;;10291870;28;94004;-68
2023/03/06 04:22:34;;;;;;;;;;;16.50;61.50;;;;;;10291366;28;93490;-68
2023/03/06 04:27:36;;;;;;;;;;;16.50;61.50;;;;;;10292615;28;93267;-68
2023/03/06 04:32:38;;;;;;;;;;;16.50;61.60;;;;;;10292255;28;94150;-68
2023/03/06 04:37:39;;;;;;;;;;;16.40;61.50;;;;;;10292859;28;92400;-69
2023/03/06 04:42:41;;;;;;;;;;;16.40;61.40;;;;;;10292632;28;94560;-69
2023/03/06 06:04:26;;;;;;;;;;;16.60;60.70;;;;;;10192542;28;95307;-75
2023/03/06 06:09:28;;;;;;;;;;;16.80;60.30;;;;;;10191331;28;93538;-75
2023/03/06 06:14:32;;;;;;;;;;;16.90;60.10;;;;;;10208339;28;94509;-75
2023/03/06 06:19:34;;;;;;;;;;;16.90;60.00;;;;;;10207922;28;94442;-75
2023/03/06 06:24:36;;;;;;;;;;;16.90;59.80;;;;;;10208400;28;94105;-75
2023/03/06 06:29:37;;;;;;;;;;;16.90;59.80;;;;;;10205337;28;93622;-75
2023/03/06 06:34:39;;;;;;;;;;;16.90;60.10;;;;;;10208013;28;93713;-75
2023/03/06 06:39:41;;;;;;;;;;;16.90;60.80;;;;;;10206972;28;92507;-68
2023/03/06 06:44:42;;;;;;;;;;;16.90;62.10;;;;;;10206787;28;94549;-72
2023/03/06 06:49:48;;;;;;;;;;;16.90;61.50;;;;;;10184418;28;95712;-73
2023/03/06 06:54:50;;;;;;;;;;;16.90;61.50;;;;;;10208444;28;95299;-74
2023/03/06 06:59:51;;;;;;;;;;;16.90;61.70;;;;;;10205654;28;94201;-73
2023/03/06 07:04:54;;;;;;;;;;;16.90;62.20;;;;;;10206494;28;93244;-71
2023/03/06 07:10:06;;;;;;;;;;;16.90;61.80;;;;;;10190532;28;93951;-74
2023/03/06 07:15:08;;;;;;;;;;;16.90;61.90;;;;;;10207824;28;93465;-74
2023/03/06 07:20:11;;;;;;;;;;;16.90;61.70;;;;;;10188740;28;93971;-74
2023/03/06 07:25:13;;;;;;;;;;;16.80;61.30;;;;;;10207262;28;92503;-75
2023/03/06 07:30:15;;;;;;;;;;;16.80;61.20;;;;;;10207060;28;94476;-76
2023/03/06 07:35:17;;;;;;;;;;;16.70;61.10;;;;;;10208811;28;92947;-76
2023/03/06 07:40:21;;;;;;;;;;;16.70;61.20;;;;;;10206561;28;95607;-76
2023/03/06 07:45:23;;;;;;;;;;;16.70;61.30;;;;;;10191553;28;93533;-76
2023/03/06 07:50:25;;;;;;;;;;;16.70;61.30;;;;;;10208399;28;93727;-75
2023/03/06 07:55:27;;;;;;;;;;;16.60;61.30;;;;;;10214178;28;93695;-76
2023/03/06 08:00:29;;;;;;;;;;;16.70;61.40;;;;;;10197296;28;95654;-75
2023/03/06 08:05:30;;;;;;;;;;;16.60;61.40;;;;;;10216816;28;94426;-75
2023/03/06 08:10:33;;;;;;;;;;;16.60;61.40;;;;;;10217765;28;94403;-75
2023/03/06 08:15:34;;;;;;;;;;;16.60;61.40;;;;;;10217744;28;94916;-75
2023/03/06 08:20:36;;;;;;;;;;;16.60;61.40;;;;;;10201240;28;94837;-75
2023/03/06 08:25:38;;;;;;;;;;;16.60;61.50;;;;;;10219015;28;92641;-77
2023/03/06 08:30:41;;;;;;;;;;;16.60;61.50;;;;;;10216176;28;95966;-73
2023/03/06 08:35:43;;;;;;;;;;;16.50;61.40;;;;;;10200610;28;94782;-74
2023/03/06 08:40:45;;;;;;;;;;;16.50;61.40;;;;;;10217192;28;93482;-75
2023/03/06 08:45:54;;;;;;;;;;;16.50;61.60;;;;;;10216247;28;93508;-75
2023/03/06 08:50:56;;;;;;;;;;;16.60;61.60;;;;;;10213982;28;94018;-75
2023/03/06 08:55:58;;;;;;;;;;;16.50;61.60;;;;;;10210614;28;93507;-76
2023/03/06 09:01:02;;;;;;;;;;;16.50;61.60;;;;;;10193255;28;93927;-75
2023/03/06 09:06:04;;;;;;;;;;;16.50;61.60;;;;;;10211135;28;93310;-76
2023/03/06 09:11:06;;;;;;;;;;;16.50;61.50;;;;;;10210646;28;93653;-76
2023/03/06 09:16:09;;;;;;;;;;;16.50;61.60;;;;;;10210111;28;93714;-76
2023/03/06 09:21:11;;;;;;;;;;;16.50;61.60;;;;;;10207610;28;95942;-76
2023/03/06 09:26:13;;;;;;;;;;;16.50;61.50;;;;;;10209335;28;93356;-75
2023/03/06 09:31:16;;;;;;;;;;;16.50;61.30;;;;;;10209660;28;93003;-75
2023/03/06 09:36:19;;;;;;;;;;;16.50;61.10;;;;;;10210047;28;94404;-76
2023/03/06 09:41:25;;;;;;;;;;;16.50;61.20;;;;;;10208437;28;93454;-75
2023/03/06 09:46:29;;;;;;;;;;;16.60;61.10;;;;;;10208444;28;94468;-75
2023/03/06 09:51:55;;;;;;;;;;;16.60;61.00;;;;;;10208601;28;94429;-75
2023/03/06 09:56:56;;;;;;;;;;;16.60;60.80;;;;;;10210030;28;93787;-76
2023/03/06 10:01:58;;;;;;;;;;;16.70;60.70;;;;;;10208075;28;94436;-75
2023/03/06 10:07:04;;;;;;;;;;;16.80;60.60;;;;;;10208411;28;93553;-75
2023/03/06 10:12:19;;;;;;;;;;;16.80;60.40;;;;;;10206242;28;97056;-75
2023/03/06 10:17:22;;;;;;;;;;;16.80;60.30;;;;;;10190829;28;93552;-76
2023/03/06 10:22:31;;;;;;;;;;;16.70;60.20;;;;;;10206706;28;93672;-75
2023/03/06 10:27:38;;;;;;;;;;;16.70;60.10;;;;;;10207502;28;93665;-76
2023/03/06 10:32:46;;;;;;;;;;;16.70;61.10;;;;;;10207302;28;94582;-75
2023/03/06 10:37:50;;;;;;;;;;;16.80;60.10;;;;;;10207795;28;93812;-76
2023/03/06 10:42:51;;;;;;;;;;;16.80;60.10;;;;;;10206902;28;93331;-75
2023/03/06 10:48:16;;;;;;;;;;;16.80;60.00;;;;;;10207494;28;93372;-75
2023/03/06 10:53:20;;;;;;;;;;;16.80;59.80;;;;;;10206739;28;94198;-75
2023/03/06 10:58:29;;;;;;;;;;;16.80;59.80;;;;;;10207249;28;93722;-76
2023/03/06 11:03:31;;;;;;;;;;;16.80;59.80;;;;;;10205640;28;96930;-76
2023/03/06 11:08:34;;;;;;;;;;;16.70;59.70;;;;;;10189295;28;95631;-74
2023/03/06 11:13:36;;;;;;;;;;;16.70;59.90;;;;;;10206572;28;93642;-76
2023/03/06 11:18:39;;;;;;;;;;;16.80;60.00;;;;;;10188610;28;93910;-76
2023/03/06 11:23:43;;;;;;;;;;;16.80;59.70;;;;;;10206230;28;93558;-75
2023/03/06 11:28:47;;;;;;;;;;;16.70;59.90;;;;;;10192148;28;93564;-76
2023/03/06 11:34:03;;;;;;;;;;;16.70;59.80;;;;;;10212986;28;93936;-76
2023/03/06 11:39:16;;;;;;;;;;;16.70;59.90;;;;;;10214473;28;91784;-75
2023/03/06 11:44:42;;;;;;;;;;;16.80;60.00;;;;;;10213413;28;94388;-75
2023/03/06 11:49:48;;;;;;;;;;;16.80;59.90;;;;;;10195527;28;94489;-75
2023/03/06 11:54:53;;;;;;;;;;;16.80;60.00;;;;;;10210265;28;96835;-75
2023/03/06 12:00:12;;;;;;;;;;;16.70;59.90;;;;;;10212429;28;93261;-74
2023/03/06 12:05:35;;;;;;;;;;;16.70;59.90;;;;;;10195722;28;94765;-74
2023/03/06 12:11:00;;;;;;;;;;;16.70;59.70;;;;;;10194783;28;94691;-74
2023/03/06 12:16:08;;;;;;;;;;;16.70;59.40;;;;;;10206698;28;93855;-74
2023/03/06 12:21:32;;;;;;;;;;;16.60;59.30;;;;;;10212686;28;94556;-74
2023/03/06 12:26:34;;;;;;;;;;;16.60;59.40;;;;;;10194000;28;93469;-74
2023/03/06 12:31:54;;;;;;;;;;;16.60;59.40;;;;;;10212646;28;93919;-74
2023/03/06 12:37:11;;;;;;;;;;;16.60;59.80;;;;;;10211512;28;93409;-75
2023/03/06 12:42:13;;;;;;;;;;;16.60;60.70;;;;;;10211106;28;95348;-75
2023/03/06 12:47:26;;;;;;;;;;;16.60;59.80;;;;;;10207800;28;96434;-74
2023/03/06 12:52:30;;;;;;;;;;;16.50;59.80;;;;;;10210876;28;93538;-74
2023/03/06 12:57:31;;;;;;;;;;;16.50;59.80;;;;;;10210765;28;94323;-75
2023/03/06 13:02:36;;;;;;;;;;;16.50;60.00;;;;;;10210849;28;93658;-75
2023/03/06 13:07:57;;;;;;;;;;;16.50;59.80;;;;;;10193105;28;95093;-74
2023/03/06 13:13:18;;;;;;;;;;;16.50;59.70;;;;;;10209815;28;94632;-75
2023/03/06 13:18:20;;;;;;;;;;;16.50;59.70;;;;;;10208813;28;93548;-75
2023/03/06 13:23:28;;;;;;;;;;;16.50;59.80;;;;;;10210512;28;93773;-74
2023/03/06 13:28:43;;;;;;;;;;;16.50;59.80;;;;;;10210009;28;93517;-75
2023/03/06 13:33:45;;;;;;;;;;;16.40;60.80;;;;;;10210122;28;94499;-74
2023/03/06 13:38:47;;;;;;;;;;;16.40;59.80;;;;;;10207197;28;96662;-74
2023/03/06 13:43:50;;;;;;;;;;;16.40;59.50;;;;;;10209487;28;94449;-74
2023/03/06 13:49:07;;;;;;;;;;;16.40;59.50;;;;;;10208992;28;94503;-75
2023/03/06 13:54:27;;;;;;;;;;;16.40;59.10;;;;;;10208814;28;94139;-74
2023/03/06 13:59:31;;;;;;;;;;;16.40;59.50;;;;;;10208285;28;93502;-75
2023/03/06 14:04:36;;;;;;;;;;;16.30;59.60;;;;;;10208692;28;94476;-75
2023/03/06 14:09:42;;;;;;;;;;;16.30;59.10;;;;;;10208183;28;93627;-74
2023/03/06 14:14:49;;;;;;;;;;;16.30;59.20;;;;;;10175210;28;92396;-74
2023/03/06 14:19:51;;;;;;;;;;;16.30;59.60;;;;;;10209007;28;94289;-74
2023/03/06 14:24:55;;;;;;;;;;;16.30;59.40;;;;;;10190063;28;93454;-74
2023/03/06 14:30:04;;;;;;;;;;;16.20;59.50;;;;;;10205505;28;95539;-74
2023/03/06 14:35:17;;;;;;;;;;;16.20;59.50;;;;;;10189644;28;93714;-74
2023/03/06 14:40:26;;;;;;;;;;;16.20;59.40;;;;;;10207287;28;92744;-74
2023/03/06 14:45:27;;;;;;;;;;;16.20;59.30;;;;;;10206974;28;93456;-74
2023/03/06 14:50:32;;;;;;;;;;;16.20;59.50;;;;;;10207429;28;94227;-75
2023/03/06 14:55:34;;;;;;;;;;;16.10;59.50;;;;;;10186500;28;93946;-74
2023/03/06 15:00:40;;;;;;;;;;;16.10;59.50;;;;;;10189827;28;93531;-74
2023/03/06 15:05:43;;;;;;;;;;;16.10;59.50;;;;;;10214458;28;92186;-74
2023/03/06 15:11:01;;;;;;;;;;;16.10;59.50;;;;;;10214015;28;93459;-74
2023/03/06 15:16:06;;;;;;;;;;;16.10;59.50;;;;;;10214276;28;93239;-75
2023/03/06 15:21:21;;;;;;;;;;;16.10;59.50;;;;;;10210968;28;95921;-74
2023/03/06 15:26:24;;;;;;;;;;;16.10;59.60;;;;;;10214780;28;94584;-74
2023/03/06 15:31:31;;;;;;;;;;;16.00;59.60;;;;;;10213813;28;93892;-75
2023/03/06 15:36:34;;;;;;;;;;;16.00;59.40;;;;;;10195491;28;93853;-74
2023/03/06 15:41:37;;;;;;;;;;;16.00;59.50;;;;;;10213229;28;93519;-75
2023/03/06 15:46:38;;;;;;;;;;;16.00;59.60;;;;;;10212769;28;94500;-74
2023/03/06 15:51:40;;;;;;;;;;;16.00;59.60;;;;;;10211829;28;94337;-75
2023/03/06 15:56:43;;;;;;;;;;;15.90;59.50;;;;;;10213461;28;92982;-75
2023/03/06 16:01:45;;;;;;;;;;;15.90;59.60;;;;;;10213073;28;93708;-75
2023/03/06 16:06:46;;;;;;;;;;;15.90;59.60;;;;;;10212309;28;94518;-75
2023/03/06 16:11:48;;;;;;;;;;;15.90;59.50;;;;;;10193469;28;95638;-75
2023/03/06 16:16:50;;;;;;;;;;;15.90;59.60;;;;;;10211986;28;93624;-75
2023/03/06 16:21:53;;;;;;;;;;;15.90;59.60;;;;;;10211948;28;94605;-75
2023/03/06 16:26:57;;;;;;;;;;;15.90;59.70;;;;;;10211501;28;93511;-75
2023/03/06 16:32:00;;;;;;;;;;;15.90;59.60;;;;;;10211644;28;93713;-75
2023/03/06 16:37:02;;;;;;;;;;;15.90;59.60;;;;;;10212510;28;93405;-75
2023/03/06 16:42:04;;;;;;;;;;;15.90;59.50;;;;;;10210671;28;93517;-75
2023/03/06 16:47:08;;;;;;;;;;;15.90;59.50;;;;;;10211244;28;92313;-75
2023/03/06 16:52:10;;;;;;;;;;;15.90;59.50;;;;;;10210331;28;93908;-75
2023/03/06 16:57:15;;;;;;;;;;;15.90;59.50;;;;;;10210067;28;93436;-75
2023/03/06 17:02:16;;;;;;;;;;;15.90;59.50;;;;;;10207886;28;96660;-75
2023/03/06 17:07:18;;;;;;;;;;;15.90;59.40;;;;;;10210644;28;93681;-75
2023/03/06 17:12:20;;;;;;;;;;;15.90;59.50;;;;;;10210791;28;95007;-74
2023/03/06 17:17:22;;;;;;;;;;;15.90;59.70;;;;;;10209187;28;93617;-75
2023/03/06 17:22:23;;;;;;;;;;;16.00;59.80;;;;;;10208969;28;92758;-75
2023/03/06 17:27:25;;;;;;;;;;;16.10;59.60;;;;;;10191503;28;93511;-75
2023/03/06 17:32:27;;;;;;;;;;;16.30;59.40;;;;;;10208709;28;93462;-75
2023/03/06 17:37:30;;;;;;;;;;;16.40;59.00;;;;;;10209978;28;94141;-75
2023/03/06 17:42:33;;;;;;;;;;;16.60;58.90;;;;;;10192226;28;94822;-75
2023/03/06 17:47:35;;;;;;;;;;;16.80;58.60;;;;;;10208392;28;93473;-76
2023/03/06 17:52:37;;;;;;;;;;;16.90;58.40;;;;;;10188374;28;95187;-75
2023/03/06 17:57:39;;;;;;;;;;;17.10;58.30;;;;;;10208537;28;93340;-76
2023/03/06 18:02:43;;;;;;;;;;;17.20;58.10;;;;;;10190894;28;94380;-75
2023/03/06 18:07:45;;;;;;;;;;;17.20;58.00;;;;;;10207458;28;93546;-75
2023/03/06 18:12:47;;;;;;;;;;;17.20;58.00;;;;;;10208623;28;94486;-76
2023/03/06 18:17:49;;;;;;;;;;;17.20;58.20;;;;;;10207784;28;93715;-76
2023/03/06 18:22:51;;;;;;;;;;;17.20;58.20;;;;;;10207564;28;94868;-75
2023/03/06 18:27:52;;;;;;;;;;;17.10;58.30;;;;;;10209053;28;92667;-75
2023/03/06 18:32:54;;;;;;;;;;;17.20;58.40;;;;;;10208353;28;93656;-74
2023/03/06 18:37:56;;;;;;;;;;;17.20;58.50;;;;;;10208210;28;93408;-75
2023/03/06 18:42:58;;;;;;;;;;;17.10;58.50;;;;;;10188341;28;97088;-75
2023/03/06 18:48:00;;;;;;;;;;;17.10;58.60;;;;;;10207459;28;93261;-76
2023/03/06 18:53:01;;;;;;;;;;;17.10;58.70;;;;;;10210931;28;94321;-75
2023/03/06 18:58:03;;;;;;;;;;;17.20;58.70;;;;;;10206737;28;93552;-76
2023/03/06 19:03:05;;;;;;;;;;;17.30;58.60;;;;;;10206412;28;93717;-76
2023/03/06 19:08:08;;;;;;;;;;;17.40;58.40;;;;;;10206747;28;93361;-76
2023/03/06 19:13:09;;;;;;;;;;;17.40;58.30;;;;;;10205848;28;93465;-76
2023/03/06 19:18:12;;;;;;;;;;;17.40;58.30;;;;;;10206814;28;93498;-76
2023/03/06 19:23:14;;;;;;;;;;;17.40;58.30;;;;;;10189929;28;94501;-76
2023/03/06 19:28:16;;;;;;;;;;;17.40;58.40;;;;;;10206319;28;93395;-75
2023/03/06 19:33:18;;;;;;;;;;;17.40;59.30;;;;;;10202629;28;96353;-76
2023/03/06 19:38:20;;;;;;;;;;;17.40;58.30;;;;;;10205564;28;93746;-76
2023/03/06 19:43:22;;;;;;;;;;;17.30;58.40;;;;;;10205322;28;93341;-76
2023/03/06 19:48:24;;;;;;;;;;;17.40;58.50;;;;;;10207107;28;94194;-76
2023/03/06 19:53:27;;;;;;;;;;;17.40;58.50;;;;;;10212185;28;94755;-76
2023/03/06 19:58:28;;;;;;;;;;;17.40;58.50;;;;;;10211091;28;93486;-76
2023/03/06 20:03:30;;;;;;;;;;;17.50;58.40;;;;;;10211371;28;94492;-76
2023/03/06 20:08:32;;;;;;;;;;;17.50;58.40;;;;;;10211632;28;93723;-73
2023/03/06 20:13:34;;;;;;;;;;;17.40;58.50;;;;;;10211724;28;94647;-73
2023/03/06 20:18:38;;;;;;;;;;;17.50;58.60;;;;;;10193343;28;93472;-73
2023/03/06 20:23:40;;;;;;;;;;;17.50;58.60;;;;;;10208705;28;96859;-73
2023/03/06 20:28:43;;;;;;;;;;;17.50;58.60;;;;;;10210648;28;93782;-73
2023/03/06 20:33:45;;;;;;;;;;;17.40;58.60;;;;;;10210696;28;94481;-73
2023/03/06 20:38:47;;;;;;;;;;;17.40;58.60;;;;;;10210747;28;94092;-73
2023/03/06 20:43:49;;;;;;;;;;;17.40;58.60;;;;;;10209281;28;93103;-74
2023/03/06 20:48:52;;;;;;;;;;;17.40;58.60;;;;;;10192115;28;93837;-74
2023/03/06 20:53:54;;;;;;;;;;;17.40;58.70;;;;;;10210383;28;92867;-74
2023/03/06 20:58:57;;;;;;;;;;;17.30;58.70;;;;;;10208988;28;92722;-75
2023/03/06 21:03:59;;;;;;;;;;;17.30;58.80;;;;;;10191550;28;93494;-74
2023/03/06 21:09:01;;;;;;;;;;;17.20;58.90;;;;;;10208978;28;94480;-74
2023/03/06 21:14:03;;;;;;;;;;;17.20;59.10;;;;;;10189936;28;96854;-74
2023/03/06 21:19:05;;;;;;;;;;;17.10;59.30;;;;;;10208373;28;93409;-73
2023/03/06 21:24:07;;;;;;;;;;;17.10;59.40;;;;;;10191871;28;93540;-74
2023/03/06 21:29:08;;;;;;;;;;;17.00;59.50;;;;;;10209466;28;94553;-74
2023/03/06 21:34:10;;;;;;;;;;;17.00;59.60;;;;;;10208599;28;93311;-74
2023/03/06 21:39:12;;;;;;;;;;;16.90;59.70;;;;;;10208712;28;94422;-74
2023/03/06 21:44:14;;;;;;;;;;;16.90;59.90;;;;;;10191847;28;93480;-73
2023/03/06 21:49:17;;;;;;;;;;;16.80;59.90;;;;;;10209169;28;94066;-73
2023/03/06 21:54:18;;;;;;;;;;;16.80;60.00;;;;;;10207103;28;92650;-74
2023/03/06 21:59:20;;;;;;;;;;;16.70;59.90;;;;;;10208486;28;93419;-73
2023/03/06 22:04:22;;;;;;;;;;;16.70;60.00;;;;;;10206252;28;96636;-74
2023/03/06 22:09:24;;;;;;;;;;;16.60;59.90;;;;;;10208274;28;93613;-74
2023/03/06 22:14:26;;;;;;;;;;;16.60;59.80;;;;;;10189663;28;94607;-74
2023/03/06 22:19:27;;;;;;;;;;;16.50;59.70;;;;;;10208712;28;94017;-73
2023/03/06 22:24:30;;;;;;;;;;;16.50;59.70;;;;;;10207373;28;94922;-73
2023/03/06 22:29:32;;;;;;;;;;;16.40;59.40;;;;;;10206996;28;94408;-73
2023/03/06 22:34:36;;;;;;;;;;;16.40;59.40;;;;;;10190414;28;114322;-73
2023/03/06 22:39:38;;;;;;;;;;;16.30;59.40;;;;;;10209140;28;93827;-73
2023/03/06 22:44:39;;;;;;;;;;;16.40;59.60;;;;;;10207526;28;93115;-73
2023/03/06 22:49:41;;;;;;;;;;;16.30;59.40;;;;;;10205769;28;93352;-73
2023/03/06 22:54:43;;;;;;;;;;;16.20;59.50;;;;;;10205092;28;95988;-73
2023/03/06 22:59:45;;;;;;;;;;;16.20;59.30;;;;;;10189780;28;94255;-73
2023/03/06 23:04:50;;;;;;;;;;;16.20;59.30;;;;;;10189059;28;93563;-73
2023/03/06 23:09:52;;;;;;;;;;;16.20;59.50;;;;;;10206382;28;93746;-73
2023/03/06 23:14:54;;;;;;;;;;;16.10;59.50;;;;;;10205360;28;93503;-74
2023/03/06 23:19:56;;;;;;;;;;;16.10;59.50;;;;;;10205986;28;94482;-73
2023/03/06 23:24:57;;;;;;;;;;;16.20;59.60;;;;;;10210299;28;93486;-73
2023/03/06 23:29:59;;;;;;;;;;;16.10;59.40;;;;;;10212751;28;93087;-73
2023/03/06 23:35:01;;;;;;;;;;;16.10;59.50;;;;;;10212047;28;93496;-74
2023/03/06 23:40:06;;;;;;;;;;;16.10;59.40;;;;;;10212671;28;94556;-74
2023/03/06 23:45:08;;;;;;;;;;;16.00;59.40;;;;;;10192030;28;95673;-73
2023/03/06 23:50:10;;;;;;;;;;;16.00;59.40;;;;;;10212388;28;94492;-73
2023/03/06 23:55:12;;;;;;;;;;;16.00;59.40;;;;;;10211539;28;93757;-73
